createdAt,value
2018-05-24T00:00:56.456Z,57.40
2018-05-24T00:03:29.097Z,57.20
2018-05-24T00:06:01.712Z,57.20
2018-05-24T00:08:34.376Z,57.60
2018-05-24T00:11:06.980Z,57.80
2018-05-24T00:13:39.604Z,58.20
2018-05-24T00:16:12.225Z,58.40
2018-05-24T00:18:44.868Z,58.40
2018-05-24T00:21:17.473Z,58.40
2018-05-24T00:23:50.083Z,58.80
2018-05-24T00:26:22.691Z,58.80
2018-05-24T00:28:55.339Z,59.20
2018-05-24T00:31:27.967Z,58.90
2018-05-24T00:34:01.378Z,59.00
2018-05-24T00:36:34.043Z,58.90
2018-05-24T00:39:06.683Z,59.20
2018-05-24T00:41:39.298Z,59.10
2018-05-24T00:44:11.944Z,59.20
2018-05-24T00:46:44.551Z,59.20
2018-05-24T00:49:17.171Z,59.30
2018-05-24T00:51:49.781Z,59.50
2018-05-24T00:54:22.433Z,59.80
2018-05-24T00:56:55.050Z,60.60
2018-05-24T00:59:27.694Z,61.60
2018-05-24T01:02:00.339Z,61.70
2018-05-24T01:04:32.953Z,62.90
2018-05-24T01:07:05.581Z,62.20
2018-05-24T01:09:38.224Z,61.90
2018-05-24T01:12:10.837Z,62.10
2018-05-24T01:14:43.484Z,62.00
2018-05-24T01:17:16.097Z,61.30
2018-05-24T01:19:48.766Z,61.90
2018-05-24T01:22:21.362Z,61.70
2018-05-24T01:24:53.971Z,62.20
2018-05-24T01:27:26.579Z,63.00
2018-05-24T01:29:59.191Z,63.20
2018-05-24T01:32:31.787Z,63.80
2018-05-24T01:35:05.167Z,67.50
2018-05-24T01:37:49.718Z,67.60
2018-05-24T01:40:22.335Z,67.00
2018-05-24T01:42:54.935Z,65.30
2018-05-24T01:45:27.547Z,65.20
2018-05-24T01:48:00.145Z,64.60
2018-05-24T01:50:32.759Z,64.90
2018-05-24T01:53:05.350Z,65.10
2018-05-24T01:55:42.663Z,64.20
2018-05-24T01:58:15.284Z,64.10
2018-05-24T02:00:47.931Z,63.60
2018-05-24T02:03:20.524Z,64.60
2018-05-24T02:05:53.155Z,63.50
2018-05-24T02:08:25.746Z,63.20
2018-05-24T02:10:58.391Z,63.50
2018-05-24T02:13:30.992Z,63.40
2018-05-24T02:16:03.634Z,63.50
2018-05-24T02:18:36.993Z,63.40
2018-05-24T02:21:09.612Z,63.30
2018-05-24T02:23:42.246Z,63.50
2018-05-24T02:26:14.896Z,63.00
2018-05-24T02:28:47.491Z,63.10
2018-05-24T02:31:20.134Z,63.60
2018-05-24T02:33:52.747Z,63.30
2018-05-24T02:36:25.384Z,63.40
2018-05-24T02:38:57.982Z,63.30
2018-05-24T02:41:30.596Z,63.20
2018-05-24T02:44:03.195Z,63.20
2018-05-24T02:46:35.831Z,63.50
2018-05-24T02:49:08.436Z,63.70
2018-05-24T02:51:41.059Z,63.30
2018-05-24T02:54:13.651Z,62.90
2018-05-24T02:56:46.269Z,63.80
2018-05-24T02:59:18.904Z,63.50
2018-05-24T03:01:51.631Z,63.50
2018-05-24T03:04:24.243Z,62.60
2018-05-24T03:06:56.883Z,63.40
2018-05-24T03:09:30.263Z,63.00
2018-05-24T03:12:02.907Z,63.00
2018-05-24T03:14:35.514Z,64.00
2018-05-24T03:17:08.136Z,63.90
2018-05-24T03:19:40.743Z,64.20
2018-05-24T03:22:13.375Z,64.40
2018-05-24T03:24:46.003Z,64.50
2018-05-24T03:27:18.628Z,65.00
2018-05-24T03:29:51.227Z,64.80
2018-05-24T03:32:24.639Z,65.70
2018-05-24T03:34:58.008Z,66.70
2018-05-24T03:37:30.663Z,66.60
2018-05-24T03:40:03.266Z,66.30
2018-05-24T03:42:35.907Z,65.70
2018-05-24T03:45:08.547Z,66.20
2018-05-24T03:47:41.176Z,68.40
2018-05-24T03:50:13.763Z,67.00
2018-05-24T03:52:46.378Z,68.30
2018-05-24T03:55:18.984Z,68.90
2018-05-24T03:57:51.688Z,69.10
2018-05-24T04:00:36.209Z,70.10
2018-05-24T04:03:20.694Z,71.40
2018-05-24T04:05:53.291Z,71.00
2018-05-24T04:08:25.902Z,71.10
2018-05-24T04:10:58.502Z,72.00
2018-05-24T04:13:31.135Z,73.80
2018-05-24T04:16:03.750Z,72.50
2018-05-24T04:18:37.155Z,73.80
2018-05-24T04:21:09.758Z,73.80
2018-05-24T04:23:42.394Z,74.70
2018-05-24T04:26:14.998Z,78.60
2018-05-24T04:28:47.635Z,80.00
2018-05-24T04:31:20.991Z,78.90
2018-05-24T04:33:53.673Z,78.80
2018-05-24T04:36:26.291Z,77.80
2018-05-24T04:38:58.919Z,78.70
2018-05-24T04:41:31.511Z,77.90
2018-05-24T04:44:04.906Z,76.30
2018-05-24T04:46:37.498Z,76.30
2018-05-24T04:49:10.135Z,76.50
2018-05-24T04:51:42.723Z,77.20
2018-05-24T04:54:15.344Z,74.90
2018-05-24T04:56:47.936Z,76.30
2018-05-24T04:59:20.554Z,76.60
2018-05-24T05:01:53.151Z,76.30
2018-05-24T05:04:25.787Z,75.20
2018-05-24T05:06:58.374Z,75.80
2018-05-24T05:09:30.980Z,76.20
2018-05-24T05:12:03.575Z,74.70
2018-05-24T05:14:36.258Z,75.20
2018-05-24T05:17:08.853Z,74.80
2018-05-24T05:19:41.490Z,75.60
2018-05-24T05:22:15.238Z,74.00
2018-05-24T05:24:47.863Z,74.50
2018-05-24T05:27:20.458Z,73.30
2018-05-24T05:29:53.099Z,73.60
2018-05-24T05:32:26.462Z,73.70
2018-05-24T05:34:59.095Z,73.70
2018-05-24T05:37:31.786Z,72.90
2018-05-24T05:40:04.367Z,72.30
2018-05-24T05:42:36.965Z,72.40
2018-05-24T05:45:10.371Z,74.20
2018-05-24T05:47:42.982Z,73.80
2018-05-24T05:50:16.375Z,71.80
2018-05-24T05:52:49.730Z,71.70
2018-05-24T05:55:22.403Z,70.80
2018-05-24T05:57:55.009Z,71.90
2018-05-24T06:00:27.651Z,70.10
2018-05-24T06:03:00.244Z,71.00
2018-05-24T06:05:32.859Z,69.30
2018-05-24T06:08:06.240Z,69.10
2018-05-24T06:10:38.875Z,69.00
2018-05-24T06:13:11.487Z,69.00
2018-05-24T06:15:44.107Z,68.50
2018-05-24T06:18:16.695Z,68.40
2018-05-24T06:20:54.958Z,68.20
2018-05-24T06:23:27.552Z,68.60
2018-05-24T06:26:00.178Z,67.60
2018-05-24T06:28:32.795Z,68.90
2018-05-24T06:31:05.419Z,69.30
2018-05-24T06:33:38.786Z,66.60
2018-05-24T06:36:11.420Z,66.70
2018-05-24T06:38:44.782Z,67.20
2018-05-24T06:41:17.423Z,67.20
2018-05-24T06:43:50.789Z,66.90
2018-05-24T06:46:23.420Z,66.80
2018-05-24T06:48:56.779Z,66.70
2018-05-24T06:51:29.416Z,66.60
2018-05-24T06:54:02.779Z,65.30
2018-05-24T06:56:35.416Z,65.30
2018-05-24T06:59:08.771Z,65.70
2018-05-24T07:01:41.403Z,66.40
2018-05-24T07:04:13.999Z,65.90
2018-05-24T07:06:46.634Z,65.80
2018-05-24T07:09:19.228Z,65.90
2018-05-24T07:11:51.859Z,65.90
2018-05-24T07:14:24.447Z,65.10
2018-05-24T07:16:57.074Z,65.00
2018-05-24T07:19:29.683Z,64.20
2018-05-24T07:22:02.324Z,64.40
2018-05-24T07:24:35.007Z,63.70
2018-05-24T07:27:08.324Z,64.20
2018-05-24T07:29:40.927Z,64.10
2018-05-24T07:32:13.535Z,62.20
2018-05-24T07:34:46.894Z,62.70
2018-05-24T07:37:19.510Z,62.70
2018-05-24T07:39:52.101Z,62.20
2018-05-24T07:42:24.720Z,61.30
2018-05-24T07:44:58.077Z,60.40
2018-05-24T07:47:30.713Z,60.30
2018-05-24T07:50:04.073Z,60.30
2018-05-24T07:52:36.711Z,60.30
2018-05-24T07:55:10.075Z,59.60
2018-05-24T07:57:42.707Z,59.60
2018-05-24T08:00:15.301Z,60.10
2018-05-24T08:02:47.924Z,61.00
2018-05-24T08:05:20.519Z,60.00
2018-05-24T08:07:53.144Z,60.40
2018-05-24T08:10:25.748Z,58.80
2018-05-24T08:12:58.391Z,59.50
2018-05-24T08:15:30.986Z,58.90
2018-05-24T08:18:03.611Z,59.50
2018-05-24T08:20:36.207Z,59.60
2018-05-24T08:23:08.851Z,58.40
2018-05-24T08:25:41.440Z,58.70
2018-05-24T08:28:14.080Z,57.50
2018-05-24T08:30:46.675Z,57.30
2018-05-24T08:33:19.286Z,57.30
2018-05-24T08:35:52.652Z,56.90
2018-05-24T08:38:25.290Z,56.90
2018-05-24T08:40:57.956Z,55.50
2018-05-24T08:43:30.563Z,55.40
2018-05-24T08:46:03.159Z,54.50
2018-05-24T08:48:36.562Z,54.30
2018-05-24T08:51:09.180Z,54.30
2018-05-24T08:53:41.807Z,54.00
2018-05-24T08:56:14.404Z,52.70
2018-05-24T08:58:47.024Z,54.20
2018-05-24T09:01:19.672Z,52.50
2018-05-24T09:03:52.286Z,52.10
2018-05-24T09:06:24.891Z,51.90
2018-05-24T09:08:57.613Z,51.50
2018-05-24T09:11:30.144Z,52.30
2018-05-24T09:14:02.778Z,52.60
2018-05-24T09:16:35.371Z,52.50
2018-05-24T09:19:08.746Z,52.00
2018-05-24T09:21:41.397Z,51.40
2018-05-24T09:24:14.004Z,51.30
2018-05-24T09:26:46.602Z,50.20
2018-05-24T09:29:19.242Z,50.60
2018-05-24T09:31:51.854Z,50.70
2018-05-24T09:34:24.490Z,48.40
2018-05-24T09:36:57.087Z,49.20
2018-05-24T09:39:29.722Z,47.40
2018-05-24T09:42:02.326Z,46.80
2018-05-24T09:44:34.966Z,47.20
2018-05-24T09:47:07.558Z,47.90
2018-05-24T09:49:40.188Z,48.10
2018-05-24T09:52:13.547Z,45.80
2018-05-24T09:54:46.184Z,45.80
2018-05-24T09:57:19.546Z,45.30
2018-05-24T09:59:52.164Z,45.40
2018-05-24T10:02:24.765Z,44.30
2018-05-24T10:04:57.403Z,46.40
2018-05-24T10:07:30.017Z,45.70
2018-05-24T10:10:02.647Z,42.60
2018-05-24T10:12:36.010Z,43.10
2018-05-24T10:15:08.659Z,43.10
2018-05-24T10:17:41.263Z,41.60
2018-05-24T10:20:13.894Z,41.70
2018-05-24T10:22:46.490Z,40.00
2018-05-24T10:25:19.132Z,41.30
2018-05-24T10:27:51.730Z,40.20
2018-05-24T10:30:24.378Z,41.10
2018-05-24T10:32:56.971Z,40.80
2018-05-24T10:35:29.688Z,38.00
2018-05-24T10:38:02.235Z,38.40
2018-05-24T10:40:34.874Z,39.80
2018-05-24T10:43:07.481Z,41.40
2018-05-24T10:45:40.123Z,40.20
2018-05-24T10:48:12.714Z,41.00
2018-05-24T10:50:45.347Z,39.00
2018-05-24T10:53:18.707Z,38.30
2018-05-24T10:55:52.310Z,38.20
2018-05-24T10:58:24.913Z,37.50
2018-05-24T11:00:57.551Z,38.10
2018-05-24T11:03:30.143Z,39.10
2018-05-24T11:06:02.761Z,39.40
2018-05-24T11:08:35.363Z,38.00
2018-05-24T11:11:07.996Z,38.40
2018-05-24T11:13:41.367Z,38.70
2018-05-24T11:16:14.018Z,38.60
2018-05-24T11:18:46.606Z,38.10
2018-05-24T11:21:19.259Z,36.60
2018-05-24T11:23:51.854Z,37.30
2018-05-24T11:26:24.484Z,37.70
2018-05-24T11:28:57.075Z,37.60
2018-05-24T11:31:30.448Z,38.40
2018-05-24T11:34:03.044Z,38.50
2018-05-24T11:36:35.700Z,37.50
2018-05-24T11:39:08.302Z,38.40
2018-05-24T11:41:40.939Z,36.50
2018-05-24T11:44:13.543Z,37.40
2018-05-24T11:46:46.190Z,37.60
2018-05-24T11:49:18.786Z,36.90
2018-05-24T11:51:51.501Z,38.60
2018-05-24T11:54:24.066Z,38.80
2018-05-24T11:56:56.707Z,38.50
2018-05-24T11:59:29.343Z,38.30
2018-05-24T12:02:01.985Z,37.00
2018-05-24T12:04:34.579Z,38.40
2018-05-24T12:07:07.290Z,37.30
2018-05-24T12:09:40.660Z,36.60
2018-05-24T12:12:13.250Z,36.60
2018-05-24T12:14:46.613Z,36.30
2018-05-24T12:17:19.250Z,36.40
2018-05-24T12:19:52.616Z,38.70
2018-05-24T12:22:25.243Z,38.70
2018-05-24T12:24:57.839Z,36.50
2018-05-24T12:27:31.271Z,37.40
2018-05-24T12:30:03.919Z,37.40
2018-05-24T12:32:36.564Z,36.40
2018-05-24T12:35:09.170Z,35.90
2018-05-24T12:37:41.822Z,36.30
2018-05-24T12:40:14.424Z,36.40
2018-05-24T12:42:47.797Z,36.80
2018-05-24T12:45:20.401Z,36.70
2018-05-24T12:47:53.036Z,36.40
2018-05-24T12:50:25.640Z,36.10
2018-05-24T12:52:58.271Z,37.20
2018-05-24T12:55:30.871Z,37.10
2018-05-24T12:58:03.500Z,37.40
2018-05-24T13:00:36.098Z,35.50
2018-05-24T13:03:08.738Z,35.90
2018-05-24T13:05:41.371Z,38.50
2018-05-24T13:08:14.011Z,36.80
2018-05-24T13:10:46.649Z,37.50
2018-05-24T13:13:19.278Z,36.30
2018-05-24T13:15:51.875Z,36.10
2018-05-24T13:18:24.509Z,36.70
2018-05-24T13:20:57.099Z,36.60
2018-05-24T13:23:30.498Z,34.90
2018-05-24T13:26:03.863Z,36.80
2018-05-24T13:28:36.494Z,36.60
2018-05-24T13:31:09.850Z,35.00
2018-05-24T13:33:42.459Z,35.00
2018-05-24T13:36:15.053Z,34.50
2018-05-24T13:38:47.673Z,34.60
2018-05-24T13:41:20.268Z,35.60
2018-05-24T13:43:52.899Z,36.00
2018-05-24T13:46:25.487Z,34.80
2018-05-24T13:48:58.109Z,35.20
2018-05-24T13:51:30.703Z,34.10
2018-05-24T13:54:03.334Z,36.30
2018-05-24T13:56:36.691Z,34.80
2018-05-24T13:59:09.333Z,34.90
2018-05-24T14:01:42.930Z,34.80
2018-05-24T14:04:15.566Z,34.70
2018-05-24T14:06:48.235Z,34.20
2018-05-24T14:09:21.642Z,35.20
2018-05-24T14:11:54.243Z,35.20
2018-05-24T14:14:26.866Z,33.80
2018-05-24T14:16:59.456Z,34.70
2018-05-24T14:19:32.086Z,35.90
2018-05-24T14:22:04.674Z,34.30
2018-05-24T14:24:37.313Z,35.00
2018-05-24T14:27:09.907Z,36.50
2018-05-24T14:29:42.531Z,35.80
2018-05-24T14:32:15.169Z,35.90
2018-05-24T14:34:47.778Z,36.20
2018-05-24T14:37:20.442Z,35.90
2018-05-24T14:39:53.877Z,35.10
2018-05-24T14:42:27.004Z,35.20
2018-05-24T14:44:59.636Z,34.40
2018-05-24T14:47:33.007Z,35.40
2018-05-24T14:50:05.622Z,35.30
2018-05-24T14:52:38.214Z,36.50
2018-05-24T14:55:10.826Z,35.80
2018-05-24T14:57:43.437Z,36.20
2018-05-24T15:00:16.055Z,36.20
2018-05-24T15:02:48.655Z,35.90
2018-05-24T15:05:21.291Z,35.30
2018-05-24T15:07:54.651Z,36.70
2018-05-24T15:10:27.278Z,36.60
2018-05-24T15:12:59.882Z,35.90
2018-05-24T15:15:33.280Z,35.50
2018-05-24T15:18:05.870Z,35.50
2018-05-24T15:20:39.295Z,35.90
2018-05-24T15:23:12.654Z,36.00
2018-05-24T15:25:45.619Z,36.00
2018-05-24T15:28:22.642Z,36.00
2018-05-24T15:30:55.276Z,35.90
2018-05-24T15:33:27.923Z,35.80
2018-05-24T15:36:00.534Z,36.80
2018-05-24T15:38:33.132Z,36.50
2018-05-24T15:41:05.772Z,36.50
2018-05-24T15:43:38.390Z,37.10
2018-05-24T15:46:11.015Z,38.40
2018-05-24T15:48:43.611Z,36.90
2018-05-24T15:51:16.244Z,37.40
2018-05-24T15:53:49.715Z,37.70
2018-05-24T15:56:22.333Z,37.70
2018-05-24T15:58:55.744Z,37.20
2018-05-24T16:01:29.290Z,36.90
2018-05-24T16:04:01.896Z,36.90
2018-05-24T16:06:34.671Z,37.40
2018-05-24T16:09:08.295Z,36.40
2018-05-24T16:11:40.911Z,36.40
2018-05-24T16:14:13.536Z,36.50
2018-05-24T16:16:46.967Z,37.30
2018-05-24T16:19:19.563Z,37.30
2018-05-24T16:21:52.315Z,37.30
2018-05-24T16:24:24.998Z,36.60
2018-05-24T16:26:57.633Z,37.30
2018-05-24T16:29:30.226Z,37.70
2018-05-24T16:32:02.862Z,36.60
2018-05-24T16:34:35.454Z,36.80
2018-05-24T16:37:08.075Z,38.00
2018-05-24T16:39:41.433Z,37.50
2018-05-24T16:42:14.067Z,37.40
2018-05-24T16:44:46.667Z,37.50
2018-05-24T16:47:20.059Z,37.10
2018-05-24T16:49:53.228Z,37.10
2018-05-24T16:52:25.979Z,36.70
2018-05-24T16:54:58.568Z,36.90
2018-05-24T16:57:31.979Z,38.10
2018-05-24T17:00:07.554Z,38.70
2018-05-24T17:02:40.287Z,38.70
2018-05-24T17:05:13.127Z,38.20
2018-05-24T17:07:45.936Z,39.10
2018-05-24T17:10:19.348Z,38.40
2018-05-24T17:12:51.959Z,38.30
2018-05-24T17:15:24.587Z,38.00
2018-05-24T17:17:57.368Z,39.70
2018-05-24T17:20:30.170Z,38.60
2018-05-24T17:23:02.838Z,38.90
2018-05-24T17:25:35.470Z,39.90
2018-05-24T17:28:08.111Z,39.20
2018-05-24T17:30:40.698Z,39.70
2018-05-24T17:33:13.353Z,39.60
2018-05-24T17:35:45.984Z,39.30
2018-05-24T17:38:18.665Z,40.80
2018-05-24T17:40:51.574Z,40.60
2018-05-24T17:43:24.355Z,41.20
2018-05-24T17:45:57.794Z,41.00
2018-05-24T17:48:30.406Z,41.00
2018-05-24T17:51:02.996Z,40.80
2018-05-24T17:53:35.639Z,40.10
2018-05-24T17:56:10.166Z,40.20
2018-05-24T17:58:42.880Z,40.20
2018-05-24T18:01:16.271Z,40.20
2018-05-24T18:03:49.081Z,40.10
2018-05-24T18:06:21.917Z,41.10
2018-05-24T18:08:54.779Z,41.60
2018-05-24T18:11:34.405Z,40.50
2018-05-24T18:14:07.143Z,41.50
2018-05-24T18:16:39.783Z,42.00
2018-05-24T18:19:12.411Z,42.00
2018-05-24T18:21:45.012Z,42.20
2018-05-24T18:24:17.679Z,42.20
2018-05-24T18:26:50.499Z,42.00
2018-05-24T18:29:23.245Z,41.80
2018-05-24T18:31:55.839Z,41.50
2018-05-24T18:34:28.455Z,41.60
2018-05-24T18:37:01.811Z,42.60
2018-05-24T18:39:34.443Z,42.60
2018-05-24T18:42:07.043Z,42.70
2018-05-24T18:44:40.447Z,43.00
2018-05-24T18:47:13.043Z,43.00
2018-05-24T18:49:46.519Z,43.40
2018-05-24T18:52:19.096Z,43.30
2018-05-24T18:54:51.791Z,42.90
2018-05-24T18:57:24.390Z,42.80
2018-05-24T18:59:57.021Z,43.20
2018-05-24T19:02:30.384Z,43.60
2018-05-24T19:05:03.051Z,43.60
2018-05-24T19:07:35.811Z,43.80
2018-05-24T19:10:08.451Z,44.20
2018-05-24T19:12:41.074Z,44.10
2018-05-24T19:15:13.711Z,44.80
2018-05-24T19:17:46.328Z,44.60
2018-05-24T19:20:18.978Z,44.50
2018-05-24T19:22:52.344Z,45.00
2018-05-24T19:25:24.956Z,44.80
2018-05-24T19:27:57.562Z,44.90
2018-05-24T19:30:30.186Z,45.30
2018-05-24T19:33:02.783Z,45.90
2018-05-24T19:35:35.652Z,45.40
2018-05-24T19:38:09.015Z,45.80
2018-05-24T19:40:41.649Z,45.80
2018-05-24T19:43:15.191Z,45.70
2018-05-24T19:45:47.819Z,45.80
2018-05-24T19:48:20.418Z,46.00
2018-05-24T19:50:53.058Z,46.10
2018-05-24T19:53:25.651Z,45.90
2018-05-24T19:55:58.279Z,46.00
2018-05-24T19:58:30.916Z,46.30
2018-05-24T20:01:03.544Z,46.40
2018-05-24T20:03:36.149Z,46.10
2018-05-24T20:06:08.888Z,46.30
2018-05-24T20:08:42.362Z,46.30
2018-05-24T20:11:15.033Z,46.20
2018-05-24T20:13:47.663Z,46.70
2018-05-24T20:16:20.327Z,46.60
2018-05-24T20:18:52.951Z,46.90
2018-05-24T20:21:25.598Z,47.20
2018-05-24T20:23:58.215Z,47.10
2018-05-24T20:26:30.875Z,47.30
2018-05-24T20:29:03.523Z,47.40
2018-05-24T20:31:36.182Z,47.40
2018-05-24T20:34:08.857Z,48.00
2018-05-24T20:36:41.554Z,47.80
2018-05-24T20:39:14.177Z,47.90
2018-05-24T20:41:46.927Z,48.00
2018-05-24T20:44:19.578Z,48.10
2018-05-24T20:46:52.231Z,48.20
2018-05-24T20:49:24.850Z,48.50
2018-05-24T20:51:57.509Z,48.70
2018-05-24T20:54:30.135Z,48.70
2018-05-24T20:57:02.790Z,48.70
2018-05-24T20:59:35.433Z,48.60
2018-05-24T21:02:08.102Z,48.70
2018-05-24T21:04:41.535Z,48.90
2018-05-24T21:07:14.194Z,48.90
2018-05-24T21:09:46.806Z,48.80
2018-05-24T21:12:19.455Z,48.90
2018-05-24T21:14:52.079Z,49.10
2018-05-24T21:17:24.734Z,48.90
2018-05-24T21:19:57.381Z,49.00
2018-05-24T21:22:30.040Z,48.80
2018-05-24T21:25:02.662Z,48.90
2018-05-24T21:27:35.323Z,48.70
2018-05-24T21:30:07.945Z,49.10
2018-05-24T21:32:40.712Z,49.50
2018-05-24T21:35:13.433Z,49.60
2018-05-24T21:37:46.172Z,49.60
2018-05-24T21:40:18.874Z,49.50
2018-05-24T21:42:51.534Z,49.60
2018-05-24T21:45:24.176Z,50.00
2018-05-24T21:47:56.845Z,49.80
2018-05-24T21:50:29.466Z,49.80
2018-05-24T21:53:02.121Z,50.00
2018-05-24T21:55:34.745Z,50.30
2018-05-24T21:58:07.395Z,50.40
2018-05-24T22:00:46.394Z,50.60
2018-05-24T22:03:19.047Z,50.50
2018-05-24T22:05:51.676Z,50.70
2018-05-24T22:08:24.319Z,50.70
2018-05-24T22:10:57.723Z,51.10
2018-05-24T22:13:31.162Z,50.90
2018-05-24T22:16:03.805Z,50.90
2018-05-24T22:18:36.484Z,50.80
2018-05-24T22:21:09.117Z,51.00
2018-05-24T22:23:42.734Z,50.80
2018-05-24T22:26:15.346Z,50.70
2018-05-24T22:28:48.004Z,51.10
2018-05-24T22:31:21.404Z,51.40
2018-05-24T22:33:54.066Z,51.40
2018-05-24T22:36:26.682Z,51.20
2018-05-24T22:38:59.352Z,51.70
2018-05-24T22:41:31.977Z,51.60
2018-05-24T22:44:05.400Z,52.60
2018-05-24T22:46:38.798Z,52.20
2018-05-24T22:49:11.466Z,52.10
2018-05-24T22:51:44.092Z,52.00
2018-05-24T22:54:17.519Z,53.30
2018-05-24T22:56:50.143Z,52.60
2018-05-24T22:59:22.794Z,52.80
2018-05-24T23:01:56.188Z,53.10
2018-05-24T23:04:29.605Z,53.40
2018-05-24T23:07:02.240Z,53.30
2018-05-24T23:09:34.891Z,53.60
2018-05-24T23:12:08.278Z,53.90
2018-05-24T23:14:40.913Z,53.80
2018-05-24T23:17:13.534Z,53.90
2018-05-24T23:19:46.178Z,53.40
2018-05-24T23:22:31.346Z,54.70
2018-05-24T23:25:03.995Z,54.00
2018-05-24T23:27:37.711Z,55.00
2018-05-24T23:30:10.355Z,54.60
2018-05-24T23:32:43.734Z,55.60
2018-05-24T23:35:16.394Z,55.50
2018-05-24T23:37:49.015Z,54.70
2018-05-24T23:40:21.682Z,55.70
2018-05-24T23:42:54.318Z,55.90
2018-05-24T23:45:26.982Z,55.90
2018-05-24T23:47:59.608Z,55.90
2018-05-24T23:50:32.274Z,56.30
2018-05-24T23:53:04.894Z,56.30
2018-05-24T23:55:37.535Z,56.70
2018-05-24T23:58:10.155Z,56.50
